Time;durP1;ratioP1;P1;durP2;ratioP2;P2;SDS_P1;SDS_P2;PMS_P1;PMS_P2;Temp;Humidity;BMP_temperature;BMP_pressure;BME280_temperature;BME280_humidity;BME280_pressure;Samples;Min_cycle;Max_cycle;Signal;HPM_P1;HPM_P2
2022/12/21 00:01:26;;;;;;;15.98;8.93;;;;;;;-2.30;88.12;61774.56;4985812;28;20220;-77
2022/12/21 00:03:55;;;;;;;17.02;8.52;;;;;;;-2.28;87.68;61763.63;4986603;28;20200;-76
2022/12/21 00:06:23;;;;;;;22.17;10.98;;;;;;;-2.37;87.63;61757.44;4993097;28;20223;-78
2022/12/21 00:08:52;;;;;;;12.93;8.57;;;;;;;-2.39;88.17;61755.91;5007171;28;20621;-78
2022/12/21 00:11:21;;;;;;;16.70;9.13;;;;;;;-2.41;88.75;61755.81;5005925;28;20227;-77
2022/12/21 00:13:48;;;;;;;18.38;9.77;;;;;;;-2.45;89.37;61749.75;5005626;28;20203;-77
2022/12/21 00:16:17;;;;;;;19.55;10.70;;;;;;;-2.48;89.77;61754.16;5003564;28;20218;-77
2022/12/21 00:18:45;;;;;;;25.38;10.20;;;;;;;-2.49;90.17;61748.16;5003222;28;20210;-79
2022/12/21 00:21:15;;;;;;;17.50;9.52;;;;;;;-2.50;90.56;61744.66;5006240;28;20272;-77
2022/12/21 00:23:43;;;;;;;25.13;10.60;;;;;;;-2.47;90.79;61749.69;5009362;28;20230;-77
2022/12/21 00:26:11;;;;;;;19.88;10.27;;;;;;;-2.56;90.92;61746.00;5001647;28;20464;-78
2022/12/21 00:28:40;;;;;;;15.40;10.35;;;;;;;-2.44;91.46;61757.75;4986184;28;20247;-77
2022/12/21 00:31:09;;;;;;;15.73;8.32;;;;;;;-2.43;91.61;61761.25;4985892;28;20240;-77
2022/12/21 00:33:37;;;;;;;12.88;8.02;;;;;;;-2.46;91.52;61753.22;4986687;28;20200;-77
2022/12/21 00:36:05;;;;;;;18.42;9.55;;;;;;;-2.59;91.62;61742.91;5007997;28;20225;-77
2022/12/21 00:38:34;;;;;;;15.50;6.60;;;;;;;-2.61;91.68;61737.88;5006913;28;20226;-77
2022/12/21 00:41:05;;;;;;;11.52;7.68;;;;;;;-2.50;91.91;61746.63;5006170;28;20219;-76
2022/12/21 00:43:33;;;;;;;14.45;7.45;;;;;;;-2.51;92.04;61750.59;5004392;28;20246;-77
2022/12/21 00:46:00;;;;;;;11.05;6.82;;;;;;;-2.51;91.62;61745.59;4996232;28;20413;-77
2022/12/21 00:48:28;;;;;;;11.60;6.82;;;;;;;-2.48;91.13;61751.16;5005977;28;20282;-77
2022/12/21 00:51:03;;;;;;;8.63;5.25;;;;;;;-2.45;89.98;61754.25;5009455;28;20224;-77
2022/12/21 00:53:30;;;;;;;9.48;6.00;;;;;;;-2.56;89.99;61738.00;5004365;28;20243;-76
2022/12/21 00:56:00;;;;;;;8.32;5.72;;;;;;;-2.50;90.61;61744.66;5005384;28;20235;-77
2022/12/21 00:58:29;;;;;;;4.85;4.40;;;;;;;-2.49;91.24;61747.66;5005061;28;20200;-77
2022/12/21 01:00:58;;;;;;;4.85;4.38;;;;;;;-2.54;91.45;61742.53;5002913;28;20245;-76
2022/12/21 01:03:26;;;;;;;4.95;4.15;;;;;;;-2.53;90.29;61746.06;5010846;28;20207;-77
2022/12/21 01:05:54;;;;;;;6.10;4.03;;;;;;;-2.66;90.22;61730.78;5010458;28;20400;-77
2022/12/21 01:08:22;;;;;;;4.68;3.67;;;;;;;-2.60;90.81;61736.91;5008517;28;20238;-76
2022/12/21 01:10:49;;;;;;;10.68;4.63;;;;;;;-2.56;90.80;61740.50;5007140;28;20261;-77
2022/12/21 01:13:18;;;;;;;5.57;4.78;;;;;;;-2.58;90.90;61745.91;5008155;28;20203;-78
2022/12/21 01:15:47;;;;;;;9.55;5.07;;;;;;;-2.64;91.13;61735.31;5010782;28;20419;-76
2022/12/21 01:18:16;;;;;;;6.68;5.20;;;;;;;-2.58;91.42;61746.44;5013648;28;20255;-77
2022/12/21 01:20:46;;;;;;;6.18;4.90;;;;;;;-2.63;91.90;61731.38;5003903;28;20270;-78
2022/12/21 01:23:13;;;;;;;6.32;4.95;;;;;;;-2.61;91.86;61733.41;4992075;28;20239;-76
2022/12/21 01:25:42;;;;;;;6.53;5.15;;;;;;;-2.58;91.87;61738.44;5008659;28;20245;-77
2022/12/21 01:28:09;;;;;;;7.75;5.57;;;;;;;-2.62;91.67;61734.88;5009368;28;20231;-77
2022/12/21 01:30:38;;;;;;;9.65;5.90;;;;;;;-2.60;91.57;61731.41;5004489;28;20227;-76
2022/12/21 01:33:05;;;;;;;5.53;5.00;;;;;;;-2.57;91.64;61747.44;4997725;28;20207;-77
2022/12/21 01:35:32;;;;;;;5.78;4.63;;;;;;;-2.65;91.81;61736.28;5027001;28;20230;-76
2022/12/21 01:37:59;;;;;;;9.25;5.53;;;;;;;-2.60;92.28;61731.41;5005942;28;20214;-77
2022/12/21 01:40:30;;;;;;;10.15;5.55;;;;;;;-2.59;92.53;61735.44;4994453;28;20271;-77
2022/12/21 01:42:58;;;;;;;12.85;7.65;;;;;;;-2.64;92.75;61735.31;5005082;28;20199;-77
2022/12/21 01:45:28;;;;;;;14.30;8.65;;;;;;;-2.57;93.15;61744.47;5008729;28;20199;-76
2022/12/21 01:47:59;;;;;;;15.48;7.82;;;;;;;-2.48;93.38;61748.66;5007086;28;20544;-77
2022/12/21 01:50:35;;;;;;;11.88;8.77;;;;;;;-2.48;93.91;61754.16;5008593;28;20223;-77
2022/12/21 01:53:07;;;;;;;13.27;8.57;;;;;;;-2.52;94.67;61747.09;5008982;28;20429;-76
2022/12/21 01:55:35;;;;;;;17.30;8.63;;;;;;;-2.51;95.42;61743.63;5002844;28;20211;-76
2022/12/21 01:58:06;;;;;;;16.17;8.02;;;;;;;-2.51;95.29;61743.13;5003442;28;20457;-78
2022/12/21 02:00:33;;;;;;;13.98;8.50;;;;;;;-2.50;95.75;61744.66;5007157;28;20244;-76
2022/12/21 02:03:06;;;;;;;13.07;8.30;;;;;;;-2.62;96.00;61734.88;5008707;28;20206;-75
2022/12/21 02:05:40;;;;;;;10.07;7.10;;;;;;;-2.61;96.42;61735.91;5006418;28;20258;-78
2022/12/21 02:08:07;;;;;;;9.85;6.03;;;;;;;-2.67;95.50;61729.25;4988421;28;20417;-77
2022/12/21 02:10:34;;;;;;;10.93;6.88;;;;;;;-2.60;94.46;61734.44;5004142;28;20295;-76
2022/12/21 02:13:03;;;;;;;9.98;6.63;;;;;;;-2.60;94.57;61739.41;5006218;28;20199;-76
2022/12/21 02:15:48;;;;;;;9.10;6.43;;;;;;;-2.62;94.42;61736.84;5004805;28;20241;-78
2022/12/21 02:18:31;;;;;;;9.98;5.85;;;;;;;-2.67;95.07;61726.75;5007485;28;20230;-77
2022/12/21 02:21:21;;;;;;;12.18;7.50;;;;;;;-2.71;95.21;61720.69;5007462;28;20218;-77
2022/12/21 02:24:21;;;;;;;13.63;7.68;;;;;;;-2.71;95.67;61723.19;5008053;28;20196;-78
2022/12/21 02:27:26;;;;;;;13.75;7.55;;;;;;;-2.72;96.13;61724.66;4988127;28;20226;-76
2022/12/21 02:30:06;;;;;;;13.02;8.15;;;;;;;-2.82;96.78;61713.91;4986979;28;20191;-77
2022/12/21 02:32:56;;;;;;;11.40;7.47;;;;;;;-2.72;97.18;61721.66;5000448;28;20219;-77
2022/12/21 02:35:35;;;;;;;15.73;8.95;;;;;;;-2.73;97.80;61720.63;4988181;28;20200;-76
2022/12/21 02:38:16;;;;;;;11.48;7.38;;;;;;;-2.78;98.10;61718.50;4989238;28;20196;-76
2022/12/21 02:40:54;;;;;;;9.40;6.82;;;;;;;-2.73;97.95;61720.63;4995600;28;20253;-77
2022/12/21 02:46:20;;;;;;;10.80;4.90;;;;;;;-2.76;96.94;61722.56;5007943;28;20246;-76
2022/12/21 02:48:53;;;;;;;6.10;4.20;;;;;;;-2.80;96.64;61715.97;5006742;28;20239;-77
2022/12/21 02:51:26;;;;;;;6.57;4.60;;;;;;;-2.83;96.85;61715.41;5003274;28;20259;-75
2022/12/21 02:53:54;;;;;;;9.93;5.30;;;;;;;-2.84;96.97;61712.41;5003888;28;20264;-76
2022/12/21 02:56:21;;;;;;;13.07;7.13;;;;;;;-2.79;97.33;61715.00;5006593;28;20238;-76
2022/12/21 02:58:49;;;;;;;10.40;6.75;;;;;;;-2.78;97.42;61723.00;5007375;28;20207;-78
2022/12/21 03:01:32;;;;;;;12.32;7.70;;;;;;;-2.81;97.92;61719.91;5002360;28;20288;-76
2022/12/21 03:04:36;;;;;;;13.52;6.65;;;;;;;-2.84;98.35;61709.38;5006797;28;20484;-77
2022/12/21 03:07:23;;;;;;;12.35;8.10;;;;;;;-2.83;98.59;61712.91;5007609;28;20222;-76
2022/12/21 03:09:59;;;;;;;11.75;6.38;;;;;;;-2.82;98.67;61713.91;5002842;28;20227;-77
2022/12/21 03:12:42;;;;;;;17.00;8.93;;;;;;;-2.81;98.83;61707.47;4997848;28;20404;-77
2022/12/21 03:15:19;;;;;;;18.00;8.95;;;;;;;-2.81;99.02;61712.97;5007701;28;20219;-77
2022/12/21 03:17:54;;;;;;;15.93;9.30;;;;;;;-2.87;99.25;61706.84;5006704;28;20377;-76
2022/12/21 03:20:25;;;;;;;16.25;9.00;;;;;;;-2.87;99.56;61708.81;4985939;28;20207;-76
2022/12/21 03:22:59;;;;;;;14.75;9.40;;;;;;;-2.92;100.00;61703.72;4990122;28;20188;-76
2022/12/21 03:25:30;;;;;;;14.77;8.23;;;;;;;-2.87;100.00;61711.81;4988048;28;20223;-76
2022/12/21 03:28:00;;;;;;;14.20;8.45;;;;;;;-2.96;100.00;61694.63;4999382;28;20251;-76
2022/12/21 03:30:30;;;;;;;12.68;8.27;;;;;;;-2.89;100.00;61714.25;4987531;28;20267;-76
2022/12/21 03:33:00;;;;;;;13.73;8.27;;;;;;;-2.90;100.00;61703.25;4987252;28;20195;-76
2022/12/21 03:35:33;;;;;;;13.65;8.80;;;;;;;-2.86;100.00;61707.34;4987713;28;20207;-76
2022/12/21 03:38:04;;;;;;;22.63;11.82;;;;;;;-2.89;100.00;61712.25;5003700;28;20225;-77
2022/12/21 03:40:34;;;;;;;15.68;9.30;;;;;;;-2.91;100.00;61702.75;5006506;28;20230;-77
2022/12/21 03:43:07;;;;;;;12.13;7.90;;;;;;;-2.85;100.00;61708.88;5005793;28;20509;-76
2022/12/21 03:45:39;;;;;;;15.23;8.63;;;;;;;-2.86;100.00;61707.84;5004210;28;20220;-76
2022/12/21 03:48:11;;;;;;;13.05;7.38;;;;;;;-2.85;100.00;61710.88;4987794;28;20224;-77
2022/12/21 03:50:44;;;;;;;14.60;7.60;;;;;;;-2.94;100.00;61706.63;5003868;28;20231;-77
2022/12/21 03:53:25;;;;;;;14.32;7.90;;;;;;;-2.85;100.00;61713.34;4999555;28;20219;-76
2022/12/21 03:55:54;;;;;;;11.48;7.03;;;;;;;-2.84;100.00;61707.41;4986714;28;20276;-76
2022/12/21 03:58:21;;;;;;;12.10;7.95;;;;;;;-2.90;100.00;61705.75;4995187;28;20559;-77
2022/12/21 04:01:12;;;;;;;13.43;8.02;;;;;;;-2.88;100.00;61710.28;5006597;28;20223;-76
2022/12/21 04:03:42;;;;;;;20.48;10.55;;;;;;;-2.99;100.00;61689.59;5007434;28;20207;-76
2022/12/21 04:06:15;;;;;;;16.85;10.77;;;;;;;-2.87;100.00;61704.34;5008486;28;20265;-77
2022/12/21 04:08:43;;;;;;;20.55;11.32;;;;;;;-3.24;100.00;61676.50;5005497;28;20299;-77
2022/12/21 04:12:36;;;;;;;22.50;12.02;;;;;;;-2.86;100.00;61707.84;4999072;28;20219;-77
2022/12/21 04:13:58;;;;;;;17.48;10.13;;;;;;;-2.83;100.00;61713.41;4987201;28;20204;-76
2022/12/21 04:16:26;;;;;;;19.13;10.35;;;;;;;-2.75;100.00;61718.59;5003968;28;20219;-77
2022/12/21 04:21:38;;;;;;;19.85;10.48;;;;;;;-2.79;100.00;61716.97;5002212;28;20266;-76
2022/12/21 04:29:31;;;;;;;21.88;12.18;;;;;;;-2.82;100.00;61716.41;5005036;28;20442;-76
2022/12/21 04:31:58;;;;;;;22.23;11.70;;;;;;;-2.83;100.00;61712.91;5002987;28;20285;-76
2022/12/21 04:34:25;;;;;;;13.05;8.68;;;;;;;-2.88;100.00;61710.28;5004487;28;20283;-76
2022/12/21 04:39:38;;;;;;;17.88;11.57;;;;;;;-2.83;100.00;61712.91;5009546;28;20286;-76
2022/12/21 04:42:05;;;;;;;16.55;9.05;;;;;;;-2.82;100.00;61711.94;5016937;28;20225;-77
2022/12/21 04:44:32;;;;;;;15.10;8.68;;;;;;;-2.89;100.00;61706.78;5032202;28;20206;-76
2022/12/21 04:46:59;;;;;;;16.20;9.25;;;;;;;-2.89;100.00;61704.78;5013294;28;20294;-77
2022/12/21 04:49:26;;;;;;;13.82;7.88;;;;;;;-2.87;100.00;61706.84;5006800;28;20227;-77
2022/12/21 04:51:54;;;;;;;16.35;8.98;;;;;;;-2.88;100.00;61705.81;5019705;28;20219;-76
2022/12/21 04:54:21;;;;;;;16.27;8.85;;;;;;;-2.92;100.00;61698.72;5008953;28;20231;-77
2022/12/21 04:56:49;;;;;;;19.60;9.55;;;;;;;-2.94;100.00;61699.16;5009073;28;20562;-76
2022/12/21 04:59:16;;;;;;;14.23;8.73;;;;;;;-3.00;100.00;61693.06;5004243;28;20342;-77
2022/12/21 05:01:43;;;;;;;15.25;8.63;;;;;;;-3.05;100.00;61690.41;5013305;28;20219;-76
2022/12/21 05:04:10;;;;;;;16.20;10.13;;;;;;;-3.10;100.00;61688.31;5008434;28;20199;-76
2022/12/21 05:06:37;;;;;;;14.48;9.23;;;;;;;-3.13;100.00;61682.75;5009144;28;20219;-76
2022/12/21 05:09:06;;;;;;;16.02;9.52;;;;;;;-3.09;100.00;61689.31;5006785;28;20259;-76
2022/12/21 05:11:34;;;;;;;13.73;8.50;;;;;;;-3.03;100.00;61692.47;5005400;28;20275;-75
2022/12/21 05:14:01;;;;;;;20.13;9.90;;;;;;;-3.10;100.00;61683.34;5009408;28;20242;-76
2022/12/21 05:16:28;;;;;;;14.63;9.13;;;;;;;-3.07;100.00;61688.88;5009787;28;20298;-77
2022/12/21 05:18:56;;;;;;;19.08;10.90;;;;;;;-3.09;100.00;61686.34;5008091;28;20199;-77
2022/12/21 05:21:23;;;;;;;20.02;12.00;;;;;;;-3.08;100.00;61687.34;5007678;28;20274;-76
2022/12/21 05:23:50;;;;;;;27.02;11.07;;;;;;;-3.09;100.00;61686.34;5007625;28;20246;-76
2022/12/21 05:26:19;;;;;;;20.10;11.48;;;;;;;-3.04;100.00;61691.44;5006732;28;20284;-77
2022/12/21 05:28:47;;;;;;;21.63;13.77;;;;;;;-2.99;100.00;61694.06;5008410;28;20239;-75
2022/12/21 05:31:15;;;;;;;25.75;14.40;;;;;;;-3.04;100.00;61688.97;5006906;28;20229;-76
2022/12/21 05:33:42;;;;;;;28.83;14.30;;;;;;;-3.03;100.00;61689.97;5009343;28;20203;-76
2022/12/21 05:36:12;;;;;;;28.70;14.50;;;;;;;-2.94;100.00;61699.16;5008578;28;20274;-76
2022/12/21 05:38:39;;;;;;;24.75;14.05;;;;;;;-3.01;100.00;61694.50;5008173;28;20536;-76
2022/12/21 05:41:06;;;;;;;23.90;13.45;;;;;;;-2.97;100.00;61696.59;5006151;28;20269;-76
2022/12/21 05:43:35;;;;;;;25.25;13.00;;;;;;;-2.95;100.00;61703.13;5009787;28;20531;-76
2022/12/21 05:46:02;;;;;;;24.88;13.38;;;;;;;-2.96;100.00;61700.13;5008198;28;20223;-76
2022/12/21 05:48:30;;;;;;;21.27;12.25;;;;;;;-2.94;100.00;61704.66;5006089;28;20262;-76
2022/12/21 05:50:56;;;;;;;22.70;12.85;;;;;;;-2.91;100.00;61702.22;5007306;28;20219;-76
2022/12/21 05:53:25;;;;;;;23.95;12.50;;;;;;;-2.90;100.00;61705.75;5005244;28;20563;-77
2022/12/21 05:55:52;;;;;;;21.17;11.50;;;;;;;-2.95;100.00;61701.16;5006339;28;20255;-77
2022/12/21 05:58:19;;;;;;;18.90;10.65;;;;;;;-2.90;100.00;61703.75;5008564;28;20195;-76
2022/12/21 06:00:48;;;;;;;22.38;11.40;;;;;;;-2.89;100.00;61709.25;5010550;28;20231;-77
2022/12/21 06:03:15;;;;;;;17.88;9.73;;;;;;;-2.98;100.00;61705.56;5000361;28;20207;-76
2022/12/21 06:05:42;;;;;;;17.65;11.30;;;;;;;-3.16;100.00;61679.19;5006965;28;20258;-77
2022/12/21 06:08:09;;;;;;;20.27;11.30;;;;;;;-3.20;100.00;61678.09;5006996;28;20207;-77
2022/12/21 06:10:37;;;;;;;24.55;12.13;;;;;;;-3.11;100.00;61687.31;5004482;28;20287;-77
2022/12/21 06:13:04;;;;;;;25.50;11.35;;;;;;;-3.12;100.00;61683.28;5008588;28;20203;-77
2022/12/21 06:15:31;;;;;;;16.70;9.18;;;;;;;-3.07;100.00;61686.41;5006294;28;20222;-74
2022/12/21 06:17:59;;;;;;;22.23;11.32;;;;;;;-3.03;100.00;61685.50;5005774;28;20202;-75
2022/12/21 06:20:27;;;;;;;25.00;11.55;;;;;;;-2.95;100.00;61698.16;5006282;28;20231;-75
2022/12/21 06:22:54;;;;;;;15.35;10.57;;;;;;;-2.89;100.00;61706.78;5006545;28;20649;-76
2022/12/21 06:25:21;;;;;;;21.67;11.15;;;;;;;-2.81;100.00;61715.44;5008206;28;20199;-75
2022/12/21 06:27:48;;;;;;;18.52;10.50;;;;;;;-2.73;100.00;61723.13;5010246;28;20254;-76
2022/12/21 06:30:16;;;;;;;33.88;13.93;;;;;;;-2.69;100.00;61722.72;4995979;28;20539;-77
2022/12/21 06:32:43;;;;;;;24.05;11.50;;;;;;;-2.63;100.00;61733.34;5006760;28;20200;-77
2022/12/21 06:35:11;;;;;;;22.73;11.15;;;;;;;-2.54;100.00;61743.03;5007162;28;20203;-76
2022/12/21 06:37:38;;;;;;;30.73;12.00;;;;;;;-2.46;100.00;61746.25;5005265;28;20250;-77
2022/12/21 06:40:07;;;;;;;23.17;11.18;;;;;;;-2.46;100.00;61755.69;5008691;28;20271;-74
2022/12/21 06:42:35;;;;;;;27.15;12.15;;;;;;;-2.25;99.58;61767.19;5007254;28;20254;-74
2022/12/21 06:45:02;;;;;;;20.13;11.38;;;;;;;-2.23;98.04;61771.75;5006978;28;20203;-74
2022/12/21 06:47:29;;;;;;;20.90;10.50;;;;;;;-2.08;96.57;61786.56;5006523;28;20247;-75
2022/12/21 06:49:55;;;;;;;18.95;10.95;;;;;;;-1.99;96.09;61803.75;5005702;28;20246;-75
2022/12/21 06:52:24;;;;;;;22.55;11.23;;;;;;;-1.84;95.24;61814.13;5003956;28;20266;-74
2022/12/21 06:54:51;;;;;;;22.35;12.77;;;;;;;-1.75;94.12;61817.81;5007735;28;20199;-74
2022/12/21 06:57:17;;;;;;;21.88;12.25;;;;;;;-1.77;94.44;61820.75;5004694;28;20415;-74
2022/12/21 06:59:44;;;;;;;25.92;13.25;;;;;;;-1.68;95.29;61830.50;5004418;28;20254;-75
2022/12/21 07:02:12;;;;;;;21.20;12.02;;;;;;;-1.69;95.15;61823.97;5004891;28;20260;-75
2022/12/21 07:04:39;;;;;;;25.25;13.35;;;;;;;-1.69;96.21;61826.97;5006723;28;20211;-74
2022/12/21 07:07:06;;;;;;;25.08;14.00;;;;;;;-1.72;96.89;61823.91;5008016;28;20215;-74
2022/12/21 07:09:34;;;;;;;22.17;12.70;;;;;;;-1.71;98.30;61822.41;5004786;28;20233;-75
2022/12/21 07:12:01;;;;;;;22.85;14.95;;;;;;;-1.63;100.00;61840.59;5005947;28;20238;-74
2022/12/21 07:14:28;;;;;;;28.77;15.05;;;;;;;-1.31;99.83;61865.31;5004392;28;20369;-75
2022/12/21 07:16:55;;;;;;;28.23;14.15;;;;;;;-1.14;98.56;61882.22;5004758;28;20479;-75
2022/12/21 07:19:22;;;;;;;28.42;15.77;;;;;;;-1.07;98.16;61889.88;5009974;28;20200;-75
2022/12/21 07:21:49;;;;;;;22.90;14.13;;;;;;;-1.17;98.09;61876.66;5000236;28;20235;-74
2022/12/21 07:24:16;;;;;;;23.15;15.77;;;;;;;-0.97;98.35;61899.63;4986712;28;20399;-74
2022/12/21 07:26:44;;;;;;;33.80;16.42;;;;;;;-1.07;98.19;61894.88;4998994;28;20290;-75
2022/12/21 07:29:12;;;;;;;23.33;15.50;;;;;;;-0.89;98.60;61905.31;4990483;28;20231;-77
2022/12/21 07:31:39;;;;;;;27.05;16.30;;;;;;;-0.83;97.53;61916.97;5004464;28;20215;-74
2022/12/21 07:34:06;;;;;;;32.33;16.23;;;;;;;-0.61;96.95;61939.50;5008031;28;20199;-75
2022/12/21 07:36:33;;;;;;;30.58;18.27;;;;;;;-0.53;97.14;61942.16;5004854;28;20215;-75
2022/12/21 07:39:01;;;;;;;36.33;18.60;;;;;;;-0.64;95.99;61933.91;4986705;28;20275;-75
2022/12/21 07:41:28;;;;;;;30.13;17.30;;;;;;;-0.57;96.22;61940.59;4985854;28;20223;-76
2022/12/21 07:43:56;;;;;;;26.55;15.70;;;;;;;-0.81;95.82;61918.50;4985800;28;20227;-75
2022/12/21 07:46:23;;;;;;;34.40;17.48;;;;;;;-0.86;96.90;61910.91;4997133;28;20226;-76
2022/12/21 07:48:50;;;;;;;31.98;18.00;;;;;;;-0.87;97.01;61912.88;4988484;28;20200;-78
2022/12/21 07:51:19;;;;;;;35.33;16.85;;;;;;;-1.10;97.47;61889.31;4985149;28;20372;-76
2022/12/21 07:53:46;;;;;;;25.98;16.10;;;;;;;-1.03;97.75;61893.47;4993851;28;20192;-76
2022/12/21 07:56:16;;;;;;;26.35;15.02;;;;;;;-1.02;97.07;61897.00;5004629;28;20222;-77
2022/12/21 07:58:44;;;;;;;27.92;14.05;;;;;;;-0.90;97.14;61909.81;5005119;28;20206;-78
2022/12/21 08:01:13;;;;;;;27.77;15.02;;;;;;;-0.85;97.52;61914.41;5006664;28;20229;-75
2022/12/21 08:03:42;;;;;;;24.50;13.25;;;;;;;-0.71;97.68;61924.25;5006491;28;20229;-76
2022/12/21 08:06:10;;;;;;;40.08;14.60;;;;;;;-0.72;96.32;61925.72;5007106;28;20231;-74
2022/12/21 08:08:37;;;;;;;32.50;14.57;;;;;;;-0.70;96.26;61927.25;5003638;28;20393;-77
2022/12/21 08:11:05;;;;;;;27.05;15.65;;;;;;;-0.66;96.56;61931.38;4997070;28;20231;-77
2022/12/21 08:13:32;;;;;;;32.85;17.92;;;;;;;-0.55;96.69;61943.13;5005268;28;20397;-77
2022/12/21 08:16:01;;;;;;;25.27;15.57;;;;;;;-0.38;97.29;61965.06;5008942;28;20223;-76
2022/12/21 08:18:30;;;;;;;34.25;18.25;;;;;;;-0.18;96.93;61980.53;5000413;28;20250;-76
2022/12/21 08:20:58;;;;;;;30.02;17.13;;;;;;;-0.08;95.58;61990.78;5005363;28;20243;-75
2022/12/21 08:23:25;;;;;;;29.35;16.92;;;;;;;0.14;96.58;62015.81;5005301;28;20242;-76
2022/12/21 08:25:53;;;;;;;28.17;16.80;;;;;;;0.39;94.59;62040.94;5004561;28;20223;-76
2022/12/21 08:28:20;;;;;;;31.98;18.60;;;;;;;0.27;92.96;62031.66;5005173;28;20211;-77
2022/12/21 08:30:47;;;;;;;34.15;18.70;;;;;;;0.41;93.00;62043.00;5013086;28;20325;-78
2022/12/21 08:33:14;;;;;;;34.78;19.10;;;;;;;0.53;92.09;62058.31;5004963;28;20437;-77
2022/12/21 08:35:44;;;;;;;32.15;19.70;;;;;;;0.35;90.77;62034.84;5002556;28;20231;-77
2022/12/21 08:38:11;;;;;;;33.88;18.52;;;;;;;0.39;91.61;62038.94;5004765;28;20199;-77
2022/12/21 08:40:38;;;;;;;31.13;18.42;;;;;;;0.55;92.52;62062.34;5004916;28;20547;-76
2022/12/21 08:43:05;;;;;;;34.88;18.70;;;;;;;0.65;90.96;62070.63;5004755;28;20199;-76
2022/12/21 08:45:33;;;;;;;34.42;19.88;;;;;;;0.73;90.37;62073.28;5003948;28;20223;-76
2022/12/21 08:47:59;;;;;;;30.15;18.70;;;;;;;0.81;89.33;62084.00;5006264;28;20199;-76
2022/12/21 08:50:28;;;;;;;28.05;15.75;;;;;;;0.90;89.55;62093.22;5005842;28;20278;-75
2022/12/21 08:52:57;;;;;;;35.90;19.02;;;;;;;0.73;88.23;62073.81;5004477;28;20217;-76
2022/12/21 08:55:24;;;;;;;33.08;18.05;;;;;;;0.91;88.55;62094.25;4991987;28;20203;-76
2022/12/21 08:57:53;;;;;;;31.92;17.65;;;;;;;0.88;89.42;62096.19;4990266;28;20199;-76
2022/12/21 09:00:20;;;;;;;24.60;15.60;;;;;;;0.97;88.99;62103.44;5007163;28;20247;-78
2022/12/21 09:02:47;;;;;;;25.85;13.80;;;;;;;1.15;88.82;62113.88;5007678;28;20394;-77
2022/12/21 09:05:14;;;;;;;28.48;16.17;;;;;;;1.14;88.19;62117.84;4999934;28;20216;-76
2022/12/21 09:07:41;;;;;;;21.75;13.50;;;;;;;1.20;87.77;62121.50;5003091;28;20199;-77
2022/12/21 09:10:10;;;;;;;32.40;15.02;;;;;;;1.37;87.77;62140.94;5004791;28;20227;-77
2022/12/21 09:12:37;;;;;;;26.67;15.65;;;;;;;1.53;87.34;62157.88;5005184;28;20385;-76
2022/12/21 09:15:05;;;;;;;22.88;13.73;;;;;;;1.78;86.60;62183.00;5004137;28;20211;-78
2022/12/21 09:17:32;;;;;;;26.15;15.45;;;;;;;1.68;83.28;62173.25;5007051;28;20223;-76
2022/12/21 09:19:59;;;;;;;35.15;15.18;;;;;;;1.52;82.65;62153.81;5006198;28;20500;-76
2022/12/21 09:22:25;;;;;;;26.60;15.80;;;;;;;1.53;82.44;62154.84;5003009;28;20220;-78
2022/12/21 09:24:52;;;;;;;26.75;15.45;;;;;;;1.66;83.06;62165.66;4999825;28;20266;-77
2022/12/21 09:27:21;;;;;;;33.53;15.65;;;;;;;1.73;83.00;62180.38;5007942;28;20227;-77
2022/12/21 09:29:48;;;;;;;28.13;16.13;;;;;;;1.99;83.02;62202.56;5005252;28;20247;-77
2022/12/21 09:32:14;;;;;;;30.17;18.75;;;;;;;2.18;82.45;62221.56;4989765;28;20251;-77
2022/12/21 09:34:42;;;;;;;26.10;16.95;;;;;;;2.21;80.26;62232.69;5002031;28;20199;-77
2022/12/21 09:37:09;;;;;;;24.50;16.38;;;;;;;2.04;80.01;62207.72;5008023;28;20215;-77
2022/12/21 09:39:37;;;;;;;35.47;16.90;;;;;;;2.16;79.61;62219.50;5006185;28;20439;-77
2022/12/21 09:42:18;;;;;;;36.20;16.13;;;;;;;2.35;80.15;62246.56;5009120;28;20420;-77
2022/12/21 09:45:12;;;;;;;30.20;17.17;;;;;;;2.11;79.24;62217.41;5006813;28;20251;-77
2022/12/21 09:47:45;;;;;;;42.30;16.90;;;;;;;2.28;78.93;62229.84;5005384;28;20254;-77
2022/12/21 09:50:20;;;;;;;27.60;17.05;;;;;;;2.35;77.99;62247.09;5011138;28;20294;-77
2022/12/21 09:52:53;;;;;;;27.92;16.38;;;;;;;2.40;76.38;62249.19;5008561;28;20222;-77
2022/12/21 09:55:22;;;;;;;25.35;14.02;;;;;;;2.64;77.20;62273.84;5009502;28;20335;-79
2022/12/21 09:57:53;;;;;;;22.35;14.43;;;;;;;2.69;76.29;62279.00;5000204;28;20196;-77
2022/12/21 10:00:23;;;;;;;30.30;15.35;;;;;;;2.64;74.85;62268.81;4991729;28;20223;-77
2022/12/21 10:03:31;;;;;;;24.48;13.82;;;;;;;2.86;75.62;62293.44;5000537;28;20316;-78
2022/12/21 10:06:16;;;;;;;25.55;16.70;;;;;;;2.80;75.08;62284.75;4975019;28;20289;-78
2022/12/21 10:09:02;;;;;;;27.30;16.05;;;;;;;2.92;74.51;62300.09;5005706;28;20471;-78
2022/12/21 10:11:47;;;;;;;32.10;16.33;;;;;;;3.09;74.20;62315.06;5008117;28;20297;-78
2022/12/21 10:14:23;;;;;;;39.33;17.33;;;;;;;2.94;72.75;62299.66;4994027;28;20196;-78
2022/12/21 10:16:59;;;;;;;34.60;17.77;;;;;;;3.09;73.93;62317.56;5004095;28;20288;-77
2022/12/21 10:19:33;;;;;;;38.25;16.75;;;;;;;3.30;72.63;62338.66;4989981;28;20199;-80
2022/12/21 10:22:07;;;;;;;30.40;15.32;;;;;;;3.14;70.84;62322.22;4988411;28;20242;-78
2022/12/21 10:24:41;;;;;;;31.20;17.33;;;;;;;3.27;73.09;62333.56;5009850;28;20195;-78
2022/12/21 10:27:15;;;;;;;30.58;17.58;;;;;;;3.50;70.97;62359.72;5008833;28;20246;-78
2022/12/21 10:29:48;;;;;;;32.50;17.77;;;;;;;3.72;70.81;62381.31;5009350;28;20234;-78
2022/12/21 10:32:16;;;;;;;27.65;17.55;;;;;;;3.65;67.52;62384.72;5007309;28;20231;-78
2022/12/21 10:34:46;;;;;;;26.65;17.70;;;;;;;3.77;66.81;62384.47;5006602;28;20199;-78
2022/12/21 10:37:16;;;;;;;27.98;18.17;;;;;;;3.64;67.62;62378.13;5004035;28;20254;-77
2022/12/21 10:39:44;;;;;;;32.53;18.45;;;;;;;3.72;68.28;62381.84;5007435;28;20199;-78
2022/12/21 10:42:20;;;;;;;28.25;18.55;;;;;;;3.71;67.07;62380.81;5011122;28;20219;-77
2022/12/21 10:44:49;;;;;;;26.40;17.98;;;;;;;3.70;67.65;62379.25;5007821;28;20199;-78
2022/12/21 10:47:20;;;;;;;35.83;16.95;;;;;;;4.02;67.26;62412.69;5007495;28;20222;-78
2022/12/21 10:49:54;;;;;;;28.60;17.30;;;;;;;4.03;64.75;62411.22;5007259;28;20507;-78
2022/12/21 10:52:39;;;;;;;29.42;17.33;;;;;;;4.09;64.66;62417.38;5006416;28;20215;-78
2022/12/21 10:55:24;;;;;;;28.10;16.60;;;;;;;4.15;63.63;62425.56;5006398;28;20387;-77
2022/12/21 10:57:55;;;;;;;37.30;16.65;;;;;;;4.12;63.46;62425.00;5007288;28;20227;-78
2022/12/21 11:00:25;;;;;;;31.02;18.27;;;;;;;4.14;63.65;62419.50;5004951;28;20214;-78
2022/12/21 11:02:57;;;;;;;38.42;17.05;;;;;;;4.03;63.82;62408.16;5006181;28;20419;-77
2022/12/21 11:05:31;;;;;;;33.33;17.75;;;;;;;4.10;63.49;62423.44;5005087;28;20264;-78
2022/12/21 11:08:15;;;;;;;27.90;17.23;;;;;;;4.22;63.00;62437.78;5007284;28;20196;-78
2022/12/21 11:10:43;;;;;;;36.78;21.52;;;;;;;4.21;62.67;62429.72;5012333;28;20245;-78
2022/12/21 11:13:13;;;;;;;35.30;18.10;;;;;;;4.26;62.45;62439.91;5003207;28;20209;-77
2022/12/21 11:15:51;;;;;;;29.63;18.75;;;;;;;4.15;62.73;62428.59;5006811;28;20508;-78
2022/12/21 11:18:31;;;;;;;31.92;18.60;;;;;;;4.19;62.67;62427.66;5007539;28;20266;-78
2022/12/21 11:21:00;;;;;;;32.28;16.98;;;;;;;4.40;63.57;62453.81;5000983;28;20222;-78
2022/12/21 11:23:29;;;;;;;35.58;17.63;;;;;;;4.59;61.94;62471.34;4989046;28;20199;-77
2022/12/21 11:25:57;;;;;;;31.20;18.20;;;;;;;4.59;61.01;62471.34;5006037;28;20242;-77
2022/12/21 11:28:25;;;;;;;25.27;17.45;;;;;;;4.58;62.77;62474.84;5008854;28;20523;-78
2022/12/21 11:30:55;;;;;;;35.10;18.48;;;;;;;4.59;61.85;62470.84;5009426;28;20226;-77
2022/12/21 11:33:24;;;;;;;28.77;18.40;;;;;;;4.73;62.41;62485.25;5011001;28;20188;-77
2022/12/21 11:36:11;;;;;;;33.50;18.10;;;;;;;4.85;61.09;62494.56;5009629;28;20230;-78
2022/12/21 11:38:39;;;;;;;28.55;17.63;;;;;;;4.79;60.90;62491.44;5007727;28;20215;-78
2022/12/21 11:41:15;;;;;;;50.22;20.13;;;;;;;4.73;61.29;62485.75;4993201;28;20227;-79
2022/12/21 11:43:46;;;;;;;29.40;18.65;;;;;;;4.62;61.55;62476.94;4994451;28;20215;-78
2022/12/21 11:46:25;;;;;;;28.73;18.92;;;;;;;4.59;61.88;62465.81;5010326;28;20228;-77
2022/12/21 11:49:05;;;;;;;34.55;18.35;;;;;;;4.64;61.70;62479.00;5001763;28;20199;-78
2022/12/21 11:51:38;;;;;;;40.15;19.05;;;;;;;4.71;61.60;62483.19;5005960;28;20239;-78